sensor_id;sensor_type;location;lat;lon;timestamp;temperature;humidity
20204;DHT22;10261;49.010;12.034;2022-12-11T00:00:54;4.10;99.90
20204;DHT22;10261;49.010;12.034;2022-12-11T00:01:56;4.10;99.90
20204;DHT22;10261;49.010;12.034;2022-12-11T00:02:59;4.10;99.90
20204;DHT22;10261;49.010;12.034;2022-12-11T00:04:04;4.20;99.90
20204;DHT22;10261;49.010;12.034;2022-12-11T00:05:07;4.20;99.90
20204;DHT22;10261;49.010;12.034;2022-12-11T00:06:12;4.20;99.90
20204;DHT22;10261;49.010;12.034;2022-12-11T00:07:14;4.20;99.90
20204;DHT22;10261;49.010;12.034;2022-12-11T00:08:17;4.20;99.90
20204;DHT22;10261;49.010;12.034;2022-12-11T00:09:19;4.10;99.90
20204;DHT22;10261;49.010;12.034;2022-12-11T00:10:23;4.10;99.90
20204;DHT22;10261;49.010;12.034;2022-12-11T00:11:25;3.70;99.90
20204;DHT22;10261;49.010;12.034;2022-12-11T00:12:30;3.60;99.90
20204;DHT22;10261;49.010;12.034;2022-12-11T00:13:33;3.50;99.90
20204;DHT22;10261;49.010;12.034;2022-12-11T00:14:35;3.40;99.90
20204;DHT22;10261;49.010;12.034;2022-12-11T00:15:38;3.30;99.90
20204;DHT22;10261;49.010;12.034;2022-12-11T00:16:40;3.30;99.90
20204;DHT22;10261;49.010;12.034;2022-12-11T00:17:44;3.20;99.90
20204;DHT22;10261;49.010;12.034;2022-12-11T00:18:46;3.10;99.90
20204;DHT22;10261;49.010;12.034;2022-12-11T00:19:50;3.10;99.90
20204;DHT22;10261;49.010;12.034;2022-12-11T00:20:52;3.10;99.90
20204;DHT22;10261;49.010;12.034;2022-12-11T00:21:55;3.20;99.90
20204;DHT22;10261;49.010;12.034;2022-12-11T00:22:57;3.20;99.90
20204;DHT22;10261;49.010;12.034;2022-12-11T00:24:00;3.20;99.90
20204;DHT22;10261;49.010;12.034;2022-12-11T00:25:02;3.20;99.90
20204;DHT22;10261;49.010;12.034;2022-12-11T00:26:07;3.20;99.90
20204;DHT22;10261;49.010;12.034;2022-12-11T00:27:10;3.20;99.90
20204;DHT22;10261;49.010;12.034;2022-12-11T00:28:15;3.20;99.90
20204;DHT22;10261;49.010;12.034;2022-12-11T00:29:17;3.10;99.90
20204;DHT22;10261;49.010;12.034;2022-12-11T00:30:20;3.20;99.90
20204;DHT22;10261;49.010;12.034;2022-12-11T00:31:22;3.20;99.90
20204;DHT22;10261;49.010;12.034;2022-12-11T00:32:25;3.10;99.90
20204;DHT22;10261;49.010;12.034;2022-12-11T00:33:29;3.10;99.90
20204;DHT22;10261;49.010;12.034;2022-12-11T00:34:32;3.10;99.90
20204;DHT22;10261;49.010;12.034;2022-12-11T00:35:38;3.20;99.90
20204;DHT22;10261;49.010;12.034;2022-12-11T00:36:42;3.20;99.90
20204;DHT22;10261;49.010;12.034;2022-12-11T00:37:44;3.20;99.90
20204;DHT22;10261;49.010;12.034;2022-12-11T00:38:47;3.10;99.90
20204;DHT22;10261;49.010;12.034;2022-12-11T00:39:49;3.10;99.90
20204;DHT22;10261;49.010;12.034;2022-12-11T00:40:52;3.10;99.90
20204;DHT22;10261;49.010;12.034;2022-12-11T00:41:58;3.10;99.90
20204;DHT22;10261;49.010;12.034;2022-12-11T00:43:02;3.10;99.90
20204;DHT22;10261;49.010;12.034;2022-12-11T00:44:04;3.10;99.90
20204;DHT22;10261;49.010;12.034;2022-12-11T00:45:07;3.10;99.90
20204;DHT22;10261;49.010;12.034;2022-12-11T00:46:11;3.10;99.90
20204;DHT22;10261;49.010;12.034;2022-12-11T00:47:14;3.10;99.90
20204;DHT22;10261;49.010;12.034;2022-12-11T00:48:16;3.10;99.90
20204;DHT22;10261;49.010;12.034;2022-12-11T00:49:19;3.20;99.90
20204;DHT22;10261;49.010;12.034;2022-12-11T00:50:21;3.10;99.90
20204;DHT22;10261;49.010;12.034;2022-12-11T00:51:26;3.10;99.90
20204;DHT22;10261;49.010;12.034;2022-12-11T00:52:29;3.20;99.90
20204;DHT22;10261;49.010;12.034;2022-12-11T00:53:32;3.20;99.90
20204;DHT22;10261;49.010;12.034;2022-12-11T00:54:35;3.10;99.90
20204;DHT22;10261;49.010;12.034;2022-12-11T00:55:38;3.10;99.90
20204;DHT22;10261;49.010;12.034;2022-12-11T00:56:41;3.10;99.90
20204;DHT22;10261;49.010;12.034;2022-12-11T00:57:43;3.10;99.90
20204;DHT22;10261;49.010;12.034;2022-12-11T00:58:46;3.20;99.90
20204;DHT22;10261;49.010;12.034;2022-12-11T00:59:49;3.10;99.90
20204;DHT22;10261;49.010;12.034;2022-12-11T01:00:52;3.10;99.90
20204;DHT22;10261;49.010;12.034;2022-12-11T01:01:55;3.10;99.90
20204;DHT22;10261;49.010;12.034;2022-12-11T01:02:58;3.10;99.90
20204;DHT22;10261;49.010;12.034;2022-12-11T01:04:00;3.10;99.90
20204;DHT22;10261;49.010;12.034;2022-12-11T01:05:04;3.10;99.90
20204;DHT22;10261;49.010;12.034;2022-12-11T01:06:07;3.20;99.90
20204;DHT22;10261;49.010;12.034;2022-12-11T01:07:11;3.10;99.90
20204;DHT22;10261;49.010;12.034;2022-12-11T01:08:13;3.10;99.90
20204;DHT22;10261;49.010;12.034;2022-12-11T01:09:16;3.10;99.90
20204;DHT22;10261;49.010;12.034;2022-12-11T01:10:36;3.10;99.90
20204;DHT22;10261;49.010;12.034;2022-12-11T01:11:39;3.10;99.90
20204;DHT22;10261;49.010;12.034;2022-12-11T01:12:42;3.10;99.90
20204;DHT22;10261;49.010;12.034;2022-12-11T01:13:44;3.10;99.90
20204;DHT22;10261;49.010;12.034;2022-12-11T01:14:47;3.10;99.90
20204;DHT22;10261;49.010;12.034;2022-12-11T01:15:49;3.20;99.90
20204;DHT22;10261;49.010;12.034;2022-12-11T01:16:52;3.10;99.90
20204;DHT22;10261;49.010;12.034;2022-12-11T01:17:54;3.10;99.90
20204;DHT22;10261;49.010;12.034;2022-12-11T01:18:57;3.10;99.90
20204;DHT22;10261;49.010;12.034;2022-12-11T01:19:59;3.10;99.90
20204;DHT22;10261;49.010;12.034;2022-12-11T01:21:07;3.10;99.90
20204;DHT22;10261;49.010;12.034;2022-12-11T01:22:11;3.00;99.90
20204;DHT22;10261;49.010;12.034;2022-12-11T01:23:13;3.10;99.90
20204;DHT22;10261;49.010;12.034;2022-12-11T01:24:16;3.10;99.90
20204;DHT22;10261;49.010;12.034;2022-12-11T01:25:18;3.10;99.90
20204;DHT22;10261;49.010;12.034;2022-12-11T01:26:21;3.00;99.90
20204;DHT22;10261;49.010;12.034;2022-12-11T01:27:25;3.00;99.90
20204;DHT22;10261;49.010;12.034;2022-12-11T01:28:27;3.00;99.90
20204;DHT22;10261;49.010;12.034;2022-12-11T01:29:29;3.00;99.90
20204;DHT22;10261;49.010;12.034;2022-12-11T01:30:33;3.00;99.90
20204;DHT22;10261;49.010;12.034;2022-12-11T01:31:35;3.10;99.90
20204;DHT22;10261;49.010;12.034;2022-12-11T01:32:39;3.10;99.90
20204;DHT22;10261;49.010;12.034;2022-12-11T01:33:41;3.00;99.90
20204;DHT22;10261;49.010;12.034;2022-12-11T01:34:44;3.10;99.90
20204;DHT22;10261;49.010;12.034;2022-12-11T01:35:46;3.10;99.90
20204;DHT22;10261;49.010;12.034;2022-12-11T01:36:51;3.10;99.90
20204;DHT22;10261;49.010;12.034;2022-12-11T01:37:54;3.20;99.90
20204;DHT22;10261;49.010;12.034;2022-12-11T01:38:57;3.20;99.90
20204;DHT22;10261;49.010;12.034;2022-12-11T01:40:00;3.10;99.90
20204;DHT22;10261;49.010;12.034;2022-12-11T01:41:03;3.10;99.90
20204;DHT22;10261;49.010;12.034;2022-12-11T01:42:05;3.10;99.90
20204;DHT22;10261;49.010;12.034;2022-12-11T01:43:11;3.10;99.90
20204;DHT22;10261;49.010;12.034;2022-12-11T01:45:54;3.20;99.90
20204;DHT22;10261;49.010;12.034;2022-12-11T01:46:57;3.20;99.90
20204;DHT22;10261;49.010;12.034;2022-12-11T01:48:04;3.10;99.90
20204;DHT22;10261;49.010;12.034;2022-12-11T01:49:10;3.10;99.90
20204;DHT22;10261;49.010;12.034;2022-12-11T01:50:14;3.10;99.90
20204;DHT22;10261;49.010;12.034;2022-12-11T01:51:16;3.10;99.90
20204;DHT22;10261;49.010;12.034;2022-12-11T01:52:20;3.10;99.90
20204;DHT22;10261;49.010;12.034;2022-12-11T01:53:27;3.20;99.90
20204;DHT22;10261;49.010;12.034;2022-12-11T01:54:31;3.10;99.90
20204;DHT22;10261;49.010;12.034;2022-12-11T01:55:33;3.10;99.90
20204;DHT22;10261;49.010;12.034;2022-12-11T01:56:39;3.10;99.90
20204;DHT22;10261;49.010;12.034;2022-12-11T01:57:44;3.00;99.90
20204;DHT22;10261;49.010;12.034;2022-12-11T01:58:53;3.10;99.90
20204;DHT22;10261;49.010;12.034;2022-12-11T02:00:05;3.10;99.90
20204;DHT22;10261;49.010;12.034;2022-12-11T02:01:09;3.00;99.90
20204;DHT22;10261;49.010;12.034;2022-12-11T02:02:17;3.10;99.90
20204;DHT22;10261;49.010;12.034;2022-12-11T02:03:20;3.00;99.90
20204;DHT22;10261;49.010;12.034;2022-12-11T02:04:23;3.00;99.90
20204;DHT22;10261;49.010;12.034;2022-12-11T02:05:25;3.00;99.90
20204;DHT22;10261;49.010;12.034;2022-12-11T02:06:35;3.00;99.90
20204;DHT22;10261;49.010;12.034;2022-12-11T02:07:39;3.10;99.90
20204;DHT22;10261;49.010;12.034;2022-12-11T02:08:46;3.00;99.90
20204;DHT22;10261;49.010;12.034;2022-12-11T02:09:48;2.90;99.90
20204;DHT22;10261;49.010;12.034;2022-12-11T02:11:02;3.00;99.90
20204;DHT22;10261;49.010;12.034;2022-12-11T02:12:14;3.00;99.90
20204;DHT22;10261;49.010;12.034;2022-12-11T02:13:22;3.00;99.90
20204;DHT22;10261;49.010;12.034;2022-12-11T02:14:32;2.90;99.90
20204;DHT22;10261;49.010;12.034;2022-12-11T02:15:43;3.00;99.90
20204;DHT22;10261;49.010;12.034;2022-12-11T02:16:55;2.90;99.90
20204;DHT22;10261;49.010;12.034;2022-12-11T02:18:09;2.90;99.90
20204;DHT22;10261;49.010;12.034;2022-12-11T02:19:27;2.90;99.90
20204;DHT22;10261;49.010;12.034;2022-12-11T02:20:35;2.90;99.90
20204;DHT22;10261;49.010;12.034;2022-12-11T02:21:41;3.00;99.90
20204;DHT22;10261;49.010;12.034;2022-12-11T02:22:58;3.00;99.90
20204;DHT22;10261;49.010;12.034;2022-12-11T02:24:25;3.00;99.90
20204;DHT22;10261;49.010;12.034;2022-12-11T02:25:33;2.90;99.90
20204;DHT22;10261;49.010;12.034;2022-12-11T02:27:02;3.00;99.90
20204;DHT22;10261;49.010;12.034;2022-12-11T02:28:18;2.90;99.90
20204;DHT22;10261;49.010;12.034;2022-12-11T02:29:25;2.90;99.90
20204;DHT22;10261;49.010;12.034;2022-12-11T02:30:30;2.80;99.90
20204;DHT22;10261;49.010;12.034;2022-12-11T02:31:36;2.90;99.90
20204;DHT22;10261;49.010;12.034;2022-12-11T02:32:44;2.90;99.90
20204;DHT22;10261;49.010;12.034;2022-12-11T02:33:51;2.90;99.90
20204;DHT22;10261;49.010;12.034;2022-12-11T02:34:59;2.90;99.90
20204;DHT22;10261;49.010;12.034;2022-12-11T02:36:04;2.80;99.90
20204;DHT22;10261;49.010;12.034;2022-12-11T02:37:13;2.80;99.90
20204;DHT22;10261;49.010;12.034;2022-12-11T02:38:19;2.70;99.90
20204;DHT22;10261;49.010;12.034;2022-12-11T02:39:25;2.80;99.90
20204;DHT22;10261;49.010;12.034;2022-12-11T02:40:30;2.80;99.90
20204;DHT22;10261;49.010;12.034;2022-12-11T02:41:34;2.80;99.90
20204;DHT22;10261;49.010;12.034;2022-12-11T02:42:39;2.80;99.90
20204;DHT22;10261;49.010;12.034;2022-12-11T02:43:44;2.70;99.90
20204;DHT22;10261;49.010;12.034;2022-12-11T02:44:48;2.80;99.90
20204;DHT22;10261;49.010;12.034;2022-12-11T02:45:52;2.80;99.90
20204;DHT22;10261;49.010;12.034;2022-12-11T02:46:55;2.70;99.90
20204;DHT22;10261;49.010;12.034;2022-12-11T02:48:00;2.70;99.90
20204;DHT22;10261;49.010;12.034;2022-12-11T02:49:05;2.70;99.90
20204;DHT22;10261;49.010;12.034;2022-12-11T02:50:11;2.60;99.90
20204;DHT22;10261;49.010;12.034;2022-12-11T02:51:17;2.60;99.90
20204;DHT22;10261;49.010;12.034;2022-12-11T02:52:22;2.60;99.90
20204;DHT22;10261;49.010;12.034;2022-12-11T02:53:29;2.60;99.90
20204;DHT22;10261;49.010;12.034;2022-12-11T02:54:34;2.60;99.90
20204;DHT22;10261;49.010;12.034;2022-12-11T02:55:39;2.60;99.90
20204;DHT22;10261;49.010;12.034;2022-12-11T02:56:44;2.70;99.90
20204;DHT22;10261;49.010;12.034;2022-12-11T02:57:51;2.60;99.90
20204;DHT22;10261;49.010;12.034;2022-12-11T02:58:59;2.70;99.90
20204;DHT22;10261;49.010;12.034;2022-12-11T03:00:04;2.70;99.90
20204;DHT22;10261;49.010;12.034;2022-12-11T03:01:07;2.70;99.90
20204;DHT22;10261;49.010;12.034;2022-12-11T03:02:10;2.60;99.90
20204;DHT22;10261;49.010;12.034;2022-12-11T03:03:13;2.60;99.90
20204;DHT22;10261;49.010;12.034;2022-12-11T03:04:17;2.50;99.90
20204;DHT22;10261;49.010;12.034;2022-12-11T03:05:19;2.40;99.90
20204;DHT22;10261;49.010;12.034;2022-12-11T03:06:26;2.40;99.90
20204;DHT22;10261;49.010;12.034;2022-12-11T03:07:33;2.40;99.90
20204;DHT22;10261;49.010;12.034;2022-12-11T03:08:36;2.40;99.90
20204;DHT22;10261;49.010;12.034;2022-12-11T03:09:39;2.40;99.90
20204;DHT22;10261;49.010;12.034;2022-12-11T03:10:42;2.40;99.90
20204;DHT22;10261;49.010;12.034;2022-12-11T03:11:44;2.50;99.90
20204;DHT22;10261;49.010;12.034;2022-12-11T03:12:49;2.50;99.90
20204;DHT22;10261;49.010;12.034;2022-12-11T03:13:56;2.40;99.90
20204;DHT22;10261;49.010;12.034;2022-12-11T03:15:00;2.40;99.90
20204;DHT22;10261;49.010;12.034;2022-12-11T03:16:08;2.40;99.90
20204;DHT22;10261;49.010;12.034;2022-12-11T03:17:15;2.30;99.90
20204;DHT22;10261;49.010;12.034;2022-12-11T03:18:25;2.30;99.90
20204;DHT22;10261;49.010;12.034;2022-12-11T03:19:35;2.20;99.90
20204;DHT22;10261;49.010;12.034;2022-12-11T03:20:42;2.30;99.90
20204;DHT22;10261;49.010;12.034;2022-12-11T03:21:47;2.40;99.90
20204;DHT22;10261;49.010;12.034;2022-12-11T03:22:59;2.40;99.90
20204;DHT22;10261;49.010;12.034;2022-12-11T03:24:09;2.40;99.90
20204;DHT22;10261;49.010;12.034;2022-12-11T03:25:16;2.30;99.90
20204;DHT22;10261;49.010;12.034;2022-12-11T03:26:22;2.30;99.90
20204;DHT22;10261;49.010;12.034;2022-12-11T03:27:27;2.30;99.90
20204;DHT22;10261;49.010;12.034;2022-12-11T03:28:39;2.30;99.90
20204;DHT22;10261;49.010;12.034;2022-12-11T03:29:48;2.40;99.90
20204;DHT22;10261;49.010;12.034;2022-12-11T03:30:55;2.40;99.90
20204;DHT22;10261;49.010;12.034;2022-12-11T03:32:03;2.40;99.90
20204;DHT22;10261;49.010;12.034;2022-12-11T03:33:12;2.40;99.90
20204;DHT22;10261;49.010;12.034;2022-12-11T03:34:19;2.30;99.90
20204;DHT22;10261;49.010;12.034;2022-12-11T03:35:25;2.30;99.90
20204;DHT22;10261;49.010;12.034;2022-12-11T03:36:31;2.30;99.90
20204;DHT22;10261;49.010;12.034;2022-12-11T03:37:36;2.30;99.90
20204;DHT22;10261;49.010;12.034;2022-12-11T03:38:45;2.30;99.90
20204;DHT22;10261;49.010;12.034;2022-12-11T03:39:53;2.20;99.90
20204;DHT22;10261;49.010;12.034;2022-12-11T03:41:00;2.20;99.90
20204;DHT22;10261;49.010;12.034;2022-12-11T03:42:06;2.20;99.90
20204;DHT22;10261;49.010;12.034;2022-12-11T03:43:10;2.10;99.90
20204;DHT22;10261;49.010;12.034;2022-12-11T03:44:13;2.20;99.90
20204;DHT22;10261;49.010;12.034;2022-12-11T03:45:19;2.10;99.90
20204;DHT22;10261;49.010;12.034;2022-12-11T03:46:26;2.20;99.90
20204;DHT22;10261;49.010;12.034;2022-12-11T03:47:30;2.20;99.90
20204;DHT22;10261;49.010;12.034;2022-12-11T03:48:37;2.20;99.90
20204;DHT22;10261;49.010;12.034;2022-12-11T03:49:42;2.20;99.90
20204;DHT22;10261;49.010;12.034;2022-12-11T03:50:47;2.10;99.90
20204;DHT22;10261;49.010;12.034;2022-12-11T03:51:51;2.10;99.90
20204;DHT22;10261;49.010;12.034;2022-12-11T03:52:57;2.20;99.90
20204;DHT22;10261;49.010;12.034;2022-12-11T03:54:01;2.20;99.90
20204;DHT22;10261;49.010;12.034;2022-12-11T03:55:06;2.20;99.90
20204;DHT22;10261;49.010;12.034;2022-12-11T03:56:10;2.10;99.90
20204;DHT22;10261;49.010;12.034;2022-12-11T03:57:18;2.10;99.90
20204;DHT22;10261;49.010;12.034;2022-12-11T03:58:22;2.10;99.90
20204;DHT22;10261;49.010;12.034;2022-12-11T03:59:25;2.10;99.90
20204;DHT22;10261;49.010;12.034;2022-12-11T04:00:28;2.10;99.90
20204;DHT22;10261;49.010;12.034;2022-12-11T04:01:31;2.00;99.90
20204;DHT22;10261;49.010;12.034;2022-12-11T04:02:33;2.10;99.90
20204;DHT22;10261;49.010;12.034;2022-12-11T04:03:37;2.10;99.90
20204;DHT22;10261;49.010;12.034;2022-12-11T04:04:40;2.20;99.90
20204;DHT22;10261;49.010;12.034;2022-12-11T04:05:45;2.20;99.90
20204;DHT22;10261;49.010;12.034;2022-12-11T04:06:47;2.10;99.90
20204;DHT22;10261;49.010;12.034;2022-12-11T04:07:50;2.10;99.90
20204;DHT22;10261;49.010;12.034;2022-12-11T04:08:52;2.00;99.90
20204;DHT22;10261;49.010;12.034;2022-12-11T04:09:55;1.90;99.90
20204;DHT22;10261;49.010;12.034;2022-12-11T04:10:57;2.00;99.90
20204;DHT22;10261;49.010;12.034;2022-12-11T04:12:13;2.00;99.90
20204;DHT22;10261;49.010;12.034;2022-12-11T04:13:16;1.90;99.90
20204;DHT22;10261;49.010;12.034;2022-12-11T04:14:18;1.90;99.90
20204;DHT22;10261;49.010;12.034;2022-12-11T04:15:40;1.90;99.90
20204;DHT22;10261;49.010;12.034;2022-12-11T04:16:44;1.90;99.90
20204;DHT22;10261;49.010;12.034;2022-12-11T04:17:46;1.90;99.90
20204;DHT22;10261;49.010;12.034;2022-12-11T04:19:07;1.90;99.90
20204;DHT22;10261;49.010;12.034;2022-12-11T04:20:28;1.90;99.90
20204;DHT22;10261;49.010;12.034;2022-12-11T04:21:54;2.00;99.90
20204;DHT22;10261;49.010;12.034;2022-12-11T04:23:16;1.90;99.90
20204;DHT22;10261;49.010;12.034;2022-12-11T04:24:38;1.90;99.90
20204;DHT22;10261;49.010;12.034;2022-12-11T04:25:41;1.90;99.90
20204;DHT22;10261;49.010;12.034;2022-12-11T04:26:43;2.00;99.90
20204;DHT22;10261;49.010;12.034;2022-12-11T04:27:47;1.90;99.90
20204;DHT22;10261;49.010;12.034;2022-12-11T04:28:51;2.00;99.90
20204;DHT22;10261;49.010;12.034;2022-12-11T04:29:54;2.00;99.90
20204;DHT22;10261;49.010;12.034;2022-12-11T04:30:57;1.90;99.90
20204;DHT22;10261;49.010;12.034;2022-12-11T04:32:00;1.90;99.90
20204;DHT22;10261;49.010;12.034;2022-12-11T04:33:03;1.90;99.90
20204;DHT22;10261;49.010;12.034;2022-12-11T04:34:06;1.90;99.90
20204;DHT22;10261;49.010;12.034;2022-12-11T04:35:09;2.10;99.90
20204;DHT22;10261;49.010;12.034;2022-12-11T04:36:12;2.10;99.90
20204;DHT22;10261;49.010;12.034;2022-12-11T04:37:14;2.10;99.90
20204;DHT22;10261;49.010;12.034;2022-12-11T04:38:17;2.00;99.90
20204;DHT22;10261;49.010;12.034;2022-12-11T04:39:19;2.00;99.90
20204;DHT22;10261;49.010;12.034;2022-12-11T04:40:22;1.90;99.90
20204;DHT22;10261;49.010;12.034;2022-12-11T04:41:24;1.90;99.90
20204;DHT22;10261;49.010;12.034;2022-12-11T04:42:27;1.90;99.90
20204;DHT22;10261;49.010;12.034;2022-12-11T04:43:29;1.90;99.90
20204;DHT22;10261;49.010;12.034;2022-12-11T04:44:32;1.80;99.90
20204;DHT22;10261;49.010;12.034;2022-12-11T04:45:34;1.80;99.90
20204;DHT22;10261;49.010;12.034;2022-12-11T04:46:39;1.80;99.90
20204;DHT22;10261;49.010;12.034;2022-12-11T04:47:41;1.70;99.90
20204;DHT22;10261;49.010;12.034;2022-12-11T04:48:45;1.70;99.90
20204;DHT22;10261;49.010;12.034;2022-12-11T04:49:47;1.70;99.90
20204;DHT22;10261;49.010;12.034;2022-12-11T04:50:50;1.70;99.90
20204;DHT22;10261;49.010;12.034;2022-12-11T04:51:52;1.70;99.90
20204;DHT22;10261;49.010;12.034;2022-12-11T04:52:55;1.60;99.90
20204;DHT22;10261;49.010;12.034;2022-12-11T04:53:58;1.60;99.90
20204;DHT22;10261;49.010;12.034;2022-12-11T04:55:00;1.60;99.90
20204;DHT22;10261;49.010;12.034;2022-12-11T04:56:04;1.60;99.90
20204;DHT22;10261;49.010;12.034;2022-12-11T04:57:06;1.50;99.90
20204;DHT22;10261;49.010;12.034;2022-12-11T04:58:09;1.50;99.90
20204;DHT22;10261;49.010;12.034;2022-12-11T04:59:11;1.50;99.90
20204;DHT22;10261;49.010;12.034;2022-12-11T05:00:15;1.60;99.90
20204;DHT22;10261;49.010;12.034;2022-12-11T05:01:20;1.60;99.90
20204;DHT22;10261;49.010;12.034;2022-12-11T05:02:25;1.60;99.90
20204;DHT22;10261;49.010;12.034;2022-12-11T05:03:27;1.60;99.90
20204;DHT22;10261;49.010;12.034;2022-12-11T05:04:30;1.60;99.90
20204;DHT22;10261;49.010;12.034;2022-12-11T05:05:33;1.60;99.90
20204;DHT22;10261;49.010;12.034;2022-12-11T05:06:36;1.60;99.90
20204;DHT22;10261;49.010;12.034;2022-12-11T05:07:38;1.60;99.90
20204;DHT22;10261;49.010;12.034;2022-12-11T05:08:42;1.60;99.90
20204;DHT22;10261;49.010;12.034;2022-12-11T05:09:44;1.60;99.90
20204;DHT22;10261;49.010;12.034;2022-12-11T05:10:54;1.60;99.90
20204;DHT22;10261;49.010;12.034;2022-12-11T05:11:57;1.60;99.90
20204;DHT22;10261;49.010;12.034;2022-12-11T05:13:00;1.50;99.90
20204;DHT22;10261;49.010;12.034;2022-12-11T05:14:02;1.60;99.90
20204;DHT22;10261;49.010;12.034;2022-12-11T05:15:06;1.60;99.90
20204;DHT22;10261;49.010;12.034;2022-12-11T05:16:11;1.60;99.90
20204;DHT22;10261;49.010;12.034;2022-12-11T05:17:14;1.70;99.90
20204;DHT22;10261;49.010;12.034;2022-12-11T05:18:18;1.70;99.90
20204;DHT22;10261;49.010;12.034;2022-12-11T05:19:21;1.70;99.90
20204;DHT22;10261;49.010;12.034;2022-12-11T05:20:23;1.60;99.90
20204;DHT22;10261;49.010;12.034;2022-12-11T05:21:26;1.70;99.90
20204;DHT22;10261;49.010;12.034;2022-12-11T05:22:35;1.70;99.90
20204;DHT22;10261;49.010;12.034;2022-12-11T05:23:38;1.70;99.90
20204;DHT22;10261;49.010;12.034;2022-12-11T05:24:41;1.70;99.90
20204;DHT22;10261;49.010;12.034;2022-12-11T05:25:50;1.70;99.90
20204;DHT22;10261;49.010;12.034;2022-12-11T05:26:52;1.60;99.90
20204;DHT22;10261;49.010;12.034;2022-12-11T05:27:55;1.60;99.90
20204;DHT22;10261;49.010;12.034;2022-12-11T05:28:57;1.60;99.90
20204;DHT22;10261;49.010;12.034;2022-12-11T05:30:00;1.70;99.90
20204;DHT22;10261;49.010;12.034;2022-12-11T05:31:04;1.70;99.90
20204;DHT22;10261;49.010;12.034;2022-12-11T05:32:08;1.60;99.90
20204;DHT22;10261;49.010;12.034;2022-12-11T05:33:11;1.60;99.90
20204;DHT22;10261;49.010;12.034;2022-12-11T05:34:14;1.60;99.90
20204;DHT22;10261;49.010;12.034;2022-12-11T05:35:17;1.60;99.90
20204;DHT22;10261;49.010;12.034;2022-12-11T05:36:21;1.60;99.90
20204;DHT22;10261;49.010;12.034;2022-12-11T05:37:24;1.50;99.90
20204;DHT22;10261;49.010;12.034;2022-12-11T05:38:27;1.50;99.90
20204;DHT22;10261;49.010;12.034;2022-12-11T05:39:29;1.50;99.90
20204;DHT22;10261;49.010;12.034;2022-12-11T05:40:32;1.60;99.90
20204;DHT22;10261;49.010;12.034;2022-12-11T05:41:34;1.60;99.90
20204;DHT22;10261;49.010;12.034;2022-12-11T05:42:38;1.60;99.90
20204;DHT22;10261;49.010;12.034;2022-12-11T05:43:40;1.60;99.90
20204;DHT22;10261;49.010;12.034;2022-12-11T05:44:43;1.60;99.90
20204;DHT22;10261;49.010;12.034;2022-12-11T05:45:45;1.60;99.90
20204;DHT22;10261;49.010;12.034;2022-12-11T05:46:48;1.60;99.90
20204;DHT22;10261;49.010;12.034;2022-12-11T05:47:50;1.60;99.90
20204;DHT22;10261;49.010;12.034;2022-12-11T05:48:55;1.60;99.90
20204;DHT22;10261;49.010;12.034;2022-12-11T05:49:59;1.60;99.90
20204;DHT22;10261;49.010;12.034;2022-12-11T05:51:03;1.60;99.90
20204;DHT22;10261;49.010;12.034;2022-12-11T05:52:06;1.70;99.90
20204;DHT22;10261;49.010;12.034;2022-12-11T05:53:08;1.80;99.90
20204;DHT22;10261;49.010;12.034;2022-12-11T05:54:11;1.80;99.90
20204;DHT22;10261;49.010;12.034;2022-12-11T05:55:13;1.80;99.90
20204;DHT22;10261;49.010;12.034;2022-12-11T05:56:18;1.80;99.90
20204;DHT22;10261;49.010;12.034;2022-12-11T05:57:20;1.80;99.90
20204;DHT22;10261;49.010;12.034;2022-12-11T05:58:23;1.80;99.90
20204;DHT22;10261;49.010;12.034;2022-12-11T05:59:25;1.80;99.90
20204;DHT22;10261;49.010;12.034;2022-12-11T06:00:28;1.80;99.90
20204;DHT22;10261;49.010;12.034;2022-12-11T06:01:38;1.80;99.90
20204;DHT22;10261;49.010;12.034;2022-12-11T06:02:42;1.80;99.90
20204;DHT22;10261;49.010;12.034;2022-12-11T06:03:44;1.80;99.90
20204;DHT22;10261;49.010;12.034;2022-12-11T06:04:47;1.70;99.90
20204;DHT22;10261;49.010;12.034;2022-12-11T06:05:51;1.60;99.90
20204;DHT22;10261;49.010;12.034;2022-12-11T06:06:54;1.60;99.90
20204;DHT22;10261;49.010;12.034;2022-12-11T06:07:57;1.70;99.90
20204;DHT22;10261;49.010;12.034;2022-12-11T06:08:59;1.70;99.90
20204;DHT22;10261;49.010;12.034;2022-12-11T06:10:03;1.50;99.90
20204;DHT22;10261;49.010;12.034;2022-12-11T06:11:06;1.50;99.90
20204;DHT22;10261;49.010;12.034;2022-12-11T06:12:08;1.50;99.90
20204;DHT22;10261;49.010;12.034;2022-12-11T06:13:11;1.60;99.90
20204;DHT22;10261;49.010;12.034;2022-12-11T06:14:13;1.50;99.90
20204;DHT22;10261;49.010;12.034;2022-12-11T06:15:16;1.50;99.90
20204;DHT22;10261;49.010;12.034;2022-12-11T06:16:19;1.50;99.90
20204;DHT22;10261;49.010;12.034;2022-12-11T06:17:23;1.60;99.90
20204;DHT22;10261;49.010;12.034;2022-12-11T06:18:26;1.70;99.90
20204;DHT22;10261;49.010;12.034;2022-12-11T06:19:29;1.60;99.90
20204;DHT22;10261;49.010;12.034;2022-12-11T06:20:37;1.50;99.90
20204;DHT22;10261;49.010;12.034;2022-12-11T06:21:42;1.50;99.90
20204;DHT22;10261;49.010;12.034;2022-12-11T06:22:44;1.50;99.90
20204;DHT22;10261;49.010;12.034;2022-12-11T06:23:48;1.40;99.90
20204;DHT22;10261;49.010;12.034;2022-12-11T06:24:51;1.50;99.90
20204;DHT22;10261;49.010;12.034;2022-12-11T06:25:54;1.50;99.90
20204;DHT22;10261;49.010;12.034;2022-12-11T06:26:56;1.50;99.90
20204;DHT22;10261;49.010;12.034;2022-12-11T06:27:59;1.40;99.90
20204;DHT22;10261;49.010;12.034;2022-12-11T06:29:01;1.40;99.90
20204;DHT22;10261;49.010;12.034;2022-12-11T06:30:10;1.40;99.90
20204;DHT22;10261;49.010;12.034;2022-12-11T06:31:13;1.40;99.90
20204;DHT22;10261;49.010;12.034;2022-12-11T06:32:16;1.30;99.90
20204;DHT22;10261;49.010;12.034;2022-12-11T06:33:18;0.60;99.90
20204;DHT22;10261;49.010;12.034;2022-12-11T06:34:21;0.30;99.90
20204;DHT22;10261;49.010;12.034;2022-12-11T06:35:25;0.10;99.90
20204;DHT22;10261;49.010;12.034;2022-12-11T06:36:26;0.00;99.90
20204;DHT22;10261;49.010;12.034;2022-12-11T06:37:31;-0.10;99.90
20204;DHT22;10261;49.010;12.034;2022-12-11T06:38:33;-0.30;99.90
20204;DHT22;10261;49.010;12.034;2022-12-11T06:39:36;-0.30;99.90
20204;DHT22;10261;49.010;12.034;2022-12-11T06:40:38;-0.30;99.90
20204;DHT22;10261;49.010;12.034;2022-12-11T06:41:41;-0.40;99.90
20204;DHT22;10261;49.010;12.034;2022-12-11T06:42:43;-0.40;99.90
20204;DHT22;10261;49.010;12.034;2022-12-11T06:43:46;-0.50;99.90
20204;DHT22;10261;49.010;12.034;2022-12-11T06:44:48;-0.70;99.90
20204;DHT22;10261;49.010;12.034;2022-12-11T06:45:51;-0.60;99.90
20204;DHT22;10261;49.010;12.034;2022-12-11T06:46:53;-0.60;99.90
20204;DHT22;10261;49.010;12.034;2022-12-11T06:47:57;-0.50;99.90
20204;DHT22;10261;49.010;12.034;2022-12-11T06:48:59;-0.50;99.90
20204;DHT22;10261;49.010;12.034;2022-12-11T06:50:02;-0.50;99.90